Time;durP1;ratioP1;P1;durP2;ratioP2;P2;SDS_P1;SDS_P2;PMS_P1;PMS_P2;Temp;Humidity;BMP_temperature;BMP_pressure;BME280_temperature;BME280_humidity;BME280_pressure;Samples;Min_cycle;Max_cycle;Signal;HPM_P1;HPM_P2
2023/10/07 00:02:14;;;;;;;4.70;2.35;;;9.10;99.90;;;;;;4996590;28;20475;-75
2023/10/07 00:04:44;;;;;;;6.38;2.50;;;9.10;99.90;;;;;;4996169;28;20038;-75
2023/10/07 00:07:11;;;;;;;4.88;2.45;;;9.10;99.90;;;;;;4978845;28;20117;-75
2023/10/07 00:09:43;;;;;;;6.22;2.50;;;9.10;99.90;;;;;;4959290;28;20031;-75
2023/10/07 00:12:14;;;;;;;6.07;2.88;;;9.10;99.90;;;;;;4972714;28;20022;-75
2023/10/07 00:14:40;;;;;;;6.78;2.30;;;9.10;99.90;;;;;;4995743;28;20050;-75
2023/10/07 00:17:12;;;;;;;4.65;2.33;;;9.10;99.90;;;;;;4995694;28;20402;-75
2023/10/07 00:19:39;;;;;;;5.07;2.42;;;9.00;99.90;;;;;;4995992;28;20031;-75
2023/10/07 00:22:08;;;;;;;5.35;2.53;;;9.00;99.90;;;;;;4995710;28;20026;-75
2023/10/07 00:24:42;;;;;;;7.15;2.40;;;8.90;99.90;;;;;;4978313;28;20509;-75
2023/10/07 00:27:25;;;;;;;5.97;2.60;;;8.90;99.90;;;;;;4995363;28;20031;-75
2023/10/07 00:29:54;;;;;;;5.95;2.55;;;8.90;99.90;;;;;;4995582;28;20023;-75
2023/10/07 00:32:32;;;;;;;4.38;2.35;;;8.90;99.90;;;;;;4995342;28;20022;-75
2023/10/07 00:35:01;;;;;;;5.28;2.30;;;8.90;99.90;;;;;;4995284;28;20018;-75
2023/10/07 00:37:30;;;;;;;6.78;2.35;;;8.80;99.90;;;;;;4995268;28;20022;-75
2023/10/07 00:40:00;;;;;;;5.28;2.42;;;8.80;99.90;;;;;;4994923;28;20085;-75
2023/10/07 00:42:27;;;;;;;4.40;2.13;;;8.80;99.90;;;;;;4995429;28;20121;-75
2023/10/07 00:44:55;;;;;;;5.07;2.60;;;8.80;99.90;;;;;;4995162;28;20034;-75
2023/10/07 00:47:21;;;;;;;4.32;2.25;;;8.60;99.90;;;;;;4978103;28;20030;-74
2023/10/07 00:49:54;;;;;;;6.78;2.22;;;8.60;99.90;;;;;;4995158;28;20113;-75
2023/10/07 00:52:29;;;;;;;6.05;2.67;;;8.50;99.90;;;;;;4972155;28;20031;-75
2023/10/07 00:57:47;;;;;;;5.68;2.67;;;8.30;99.90;;;;;;4995193;28;20030;-75
2023/10/07 01:00:40;;;;;;;7.22;2.72;;;8.30;99.90;;;;;;4995146;28;20054;-75
2023/10/07 01:03:31;;;;;;;6.13;2.20;;;8.20;99.90;;;;;;4994799;28;20046;-75
2023/10/07 01:08:34;;;;;;;5.32;2.45;;;8.20;99.90;;;;;;4995248;28;20483;-75
2023/10/07 01:13:50;;;;;;;5.20;2.60;;;8.30;99.90;;;;;;4995277;28;20030;-75
2023/10/07 01:18:59;;;;;;;5.35;2.38;;;8.30;99.90;;;;;;4994989;28;20022;-75
2023/10/07 01:21:32;;;;;;;4.35;2.17;;;8.30;99.90;;;;;;4977298;28;20026;-75
2023/10/07 01:23:58;;;;;;;6.10;2.83;;;8.30;99.90;;;;;;4977250;28;20026;-75
2023/10/07 01:26:29;;;;;;;5.18;2.30;;;8.20;99.90;;;;;;4994287;28;20131;-75
2023/10/07 01:29:13;;;;;;;3.70;2.03;;;8.20;99.90;;;;;;4994641;28;20026;-76
2023/10/07 01:31:59;;;;;;;5.10;2.42;;;8.20;99.90;;;;;;4994845;28;20106;-75
2023/10/07 01:34:34;;;;;;;6.13;2.80;;;8.20;99.90;;;;;;4994594;28;20042;-74
2023/10/07 01:37:02;;;;;;;6.22;2.53;;;8.20;99.90;;;;;;4994600;28;20105;-75
2023/10/07 01:39:40;;;;;;;6.70;2.58;;;8.20;99.90;;;;;;4993924;28;20029;-74
2023/10/07 01:42:37;;;;;;;3.95;2.28;;;8.20;99.90;;;;;;4994584;28;20030;-75
2023/10/07 01:45:19;;;;;;;5.78;2.10;;;8.10;99.90;;;;;;4965114;28;20054;-75
2023/10/07 01:47:49;;;;;;;5.97;2.63;;;8.10;99.90;;;;;;4976355;28;20061;-75
2023/10/07 01:50:18;;;;;;;5.30;2.20;;;8.10;99.90;;;;;;4994619;28;20101;-75
2023/10/07 01:52:48;;;;;;;6.05;2.42;;;8.00;99.90;;;;;;4994071;28;20356;-75
2023/10/07 01:55:16;;;;;;;5.70;2.83;;;8.00;99.90;;;;;;4980054;28;20497;-76
2023/10/07 01:57:44;;;;;;;5.75;2.40;;;7.90;99.90;;;;;;4994264;28;20037;-75
2023/10/07 02:00:11;;;;;;;6.90;2.80;;;7.90;99.90;;;;;;4994325;28;20073;-75
2023/10/07 02:02:50;;;;;;;6.10;2.53;;;7.90;99.90;;;;;;4976705;28;20076;-75
2023/10/07 02:05:25;;;;;;;5.47;2.63;;;7.90;99.90;;;;;;4971982;28;20037;-75
2023/10/07 02:07:53;;;;;;;7.20;2.75;;;7.90;99.90;;;;;;4995445;28;20386;-75
2023/10/07 02:10:25;;;;;;;6.15;2.55;;;7.80;99.90;;;;;;4961132;28;20034;-75
2023/10/07 02:12:53;;;;;;;4.95;2.28;;;7.80;99.90;;;;;;4977508;28;20031;-75
2023/10/07 02:15:19;;;;;;;6.70;2.63;;;7.80;99.90;;;;;;4993969;28;20031;-75
2023/10/07 02:17:47;;;;;;;7.50;2.70;;;7.80;99.90;;;;;;4960495;28;20033;-75
2023/10/07 02:20:24;;;;;;;4.65;2.13;;;7.70;99.90;;;;;;4994132;28;20047;-75
2023/10/07 02:22:51;;;;;;;4.50;2.40;;;7.70;99.90;;;;;;4994242;28;20474;-75
2023/10/07 02:25:21;;;;;;;5.20;2.42;;;7.70;99.90;;;;;;4976481;28;20081;-75
2023/10/07 02:27:49;;;;;;;4.32;2.38;;;7.60;99.90;;;;;;4994019;28;20093;-75
2023/10/07 02:30:20;;;;;;;3.97;2.20;;;7.60;99.90;;;;;;4976744;28;20030;-75
2023/10/07 02:32:47;;;;;;;6.68;2.15;;;7.60;99.90;;;;;;4993524;28;20035;-75
2023/10/07 02:35:19;;;;;;;5.90;2.60;;;7.60;99.90;;;;;;4993577;28;20097;-75
2023/10/07 02:37:49;;;;;;;5.30;2.53;;;7.50;99.90;;;;;;4993664;28;20018;-75
2023/10/07 02:40:36;;;;;;;5.88;2.67;;;7.50;99.90;;;;;;4993317;28;20026;-75
2023/10/07 02:43:07;;;;;;;4.25;2.30;;;7.50;99.90;;;;;;4993621;28;20026;-75
2023/10/07 02:45:39;;;;;;;6.47;2.80;;;7.40;99.90;;;;;;4993714;28;20022;-75
2023/10/07 02:48:10;;;;;;;5.45;2.50;;;7.40;99.90;;;;;;4993908;28;20460;-75
2023/10/07 02:50:42;;;;;;;6.13;2.67;;;7.40;99.90;;;;;;4997324;28;20153;-75
2023/10/07 02:53:15;;;;;;;6.18;2.88;;;7.40;99.90;;;;;;4997557;28;20042;-75
2023/10/07 02:58:13;;;;;;;5.10;2.42;;;7.40;99.90;;;;;;4997955;28;20467;-75
2023/10/07 03:00:39;;;;;;;5.10;2.60;;;7.40;99.90;;;;;;4997635;28;20419;-75
2023/10/07 03:05:36;;;;;;;4.03;2.20;;;7.30;99.90;;;;;;4998301;28;20363;-76
2023/10/07 03:08:02;;;;;;;6.60;2.75;;;7.30;99.90;;;;;;4997567;28;20055;-75
2023/10/07 03:10:43;;;;;;;6.90;2.60;;;7.30;99.90;;;;;;4979964;28;20398;-76
2023/10/07 03:13:09;;;;;;;5.85;2.80;;;7.30;99.90;;;;;;4997407;28;20030;-75
2023/10/07 03:18:03;;;;;;;6.40;2.85;;;7.20;99.90;;;;;;4997652;28;20077;-76
2023/10/07 03:20:31;;;;;;;6.03;2.67;;;7.20;99.90;;;;;;4997410;28;20018;-75
2023/10/07 03:23:25;;;;;;;4.95;2.70;;;7.20;99.90;;;;;;5013113;28;20041;-75
2023/10/07 03:28:22;;;;;;;5.07;2.63;;;7.20;99.90;;;;;;5017155;28;20112;-76
2023/10/07 03:30:51;;;;;;;6.35;3.13;;;7.20;99.90;;;;;;5016778;28;20026;-76
2023/10/07 03:33:23;;;;;;;5.63;2.55;;;7.20;99.90;;;;;;5016690;28;20026;-75
2023/10/07 03:38:25;;;;;;;4.88;2.47;;;7.10;99.90;;;;;;5015846;28;20470;-75
2023/10/07 03:40:54;;;;;;;5.55;2.40;;;7.10;99.90;;;;;;5017118;28;20045;-76
2023/10/07 03:43:27;;;;;;;5.68;2.75;;;7.10;99.90;;;;;;5016584;28;20050;-76
2023/10/07 03:45:54;;;;;;;4.80;2.60;;;7.10;99.90;;;;;;5016566;28;20398;-75
2023/10/07 03:48:31;;;;;;;4.88;2.33;;;7.10;99.90;;;;;;5016442;28;20037;-76
2023/10/07 03:51:07;;;;;;;5.32;2.58;;;7.10;99.90;;;;;;5016391;28;20069;-75
2023/10/07 03:53:47;;;;;;;4.78;2.28;;;7.00;99.90;;;;;;4982919;28;20454;-75
2023/10/07 03:56:16;;;;;;;6.65;2.78;;;7.00;99.90;;;;;;5016477;28;20030;-75
2023/10/07 03:58:43;;;;;;;5.60;2.78;;;6.90;99.90;;;;;;5016510;28;20022;-76
2023/10/07 04:01:16;;;;;;;4.85;2.28;;;6.90;99.90;;;;;;5015949;28;20490;-75
2023/10/07 04:03:50;;;;;;;4.32;2.28;;;6.90;99.90;;;;;;4998652;28;20422;-75
2023/10/07 04:06:17;;;;;;;5.47;2.67;;;6.90;99.90;;;;;;4999776;28;20570;-76
2023/10/07 04:08:52;;;;;;;5.82;2.53;;;6.80;99.90;;;;;;5016495;28;20061;-72
2023/10/07 04:11:19;;;;;;;6.57;2.63;;;6.70;99.90;;;;;;5016457;28;20021;-72
2023/10/07 04:13:53;;;;;;;6.10;2.60;;;6.70;99.90;;;;;;4980583;28;20026;-73
2023/10/07 04:16:24;;;;;;;6.22;3.03;;;6.60;99.90;;;;;;4996429;28;20026;-72
2023/10/07 04:18:51;;;;;;;6.32;2.70;;;6.70;99.90;;;;;;4996147;28;20029;-73
2023/10/07 04:21:17;;;;;;;5.20;2.65;;;6.60;99.90;;;;;;4995782;28;20023;-73
2023/10/07 04:23:44;;;;;;;8.85;3.03;;;6.60;99.90;;;;;;4996314;28;20141;-72
2023/10/07 04:26:19;;;;;;;8.13;3.05;;;6.60;99.90;;;;;;4995595;28;20061;-73
2023/10/07 04:28:48;;;;;;;7.95;3.10;;;6.60;99.90;;;;;;4995692;28;20031;-73
2023/10/07 04:31:16;;;;;;;4.93;2.58;;;6.60;99.90;;;;;;4975868;28;20030;-73
2023/10/07 04:33:47;;;;;;;5.18;2.50;;;6.70;99.90;;;;;;4975257;28;20027;-73
2023/10/07 04:36:15;;;;;;;6.50;2.53;;;6.60;99.90;;;;;;4976356;28;20061;-73
2023/10/07 04:38:53;;;;;;;5.07;2.35;;;6.70;99.90;;;;;;4978565;28;20110;-73
2023/10/07 04:43:59;;;;;;;4.30;2.30;;;6.60;99.90;;;;;;4992409;28;20041;-73
2023/10/07 04:46:42;;;;;;;5.43;2.10;;;6.60;99.90;;;;;;4994862;28;20117;-74
2023/10/07 04:49:14;;;;;;;6.00;2.17;;;6.60;99.90;;;;;;4979700;28;20442;-72
2023/10/07 04:54:10;;;;;;;3.88;1.95;;;6.60;99.90;;;;;;4978361;28;20031;-72
2023/10/07 04:56:36;;;;;;;7.18;2.30;;;6.60;99.90;;;;;;4994056;28;20478;-73
2023/10/07 04:59:06;;;;;;;4.20;2.22;;;6.50;99.90;;;;;;4994906;28;20110;-73
2023/10/07 05:01:33;;;;;;;6.65;3.00;;;6.50;99.90;;;;;;4995181;28;20045;-73
2023/10/07 05:04:04;;;;;;;19.23;10.05;;;6.50;99.90;;;;;;4995240;28;20022;-72
2023/10/07 05:06:37;;;;;;;40.33;23.45;;;6.50;99.90;;;;;;4977632;28;20065;-72
2023/10/07 05:09:09;;;;;;;45.70;26.92;;;6.50;99.90;;;;;;4994931;28;20073;-72
2023/10/07 05:11:37;;;;;;;34.95;22.02;;;6.50;99.90;;;;;;4977385;28;20471;-72
2023/10/07 05:14:03;;;;;;;32.58;20.73;;;6.40;99.90;;;;;;4994183;28;20391;-72
2023/10/07 05:16:29;;;;;;;30.40;20.70;;;6.40;99.90;;;;;;4976831;28;20026;-73
2023/10/07 05:18:55;;;;;;;18.88;11.70;;;6.40;99.90;;;;;;4976875;28;20022;-73
2023/10/07 05:21:22;;;;;;;14.63;7.90;;;6.40;99.90;;;;;;4994557;28;20019;-72
2023/10/07 05:23:48;;;;;;;9.20;4.38;;;6.40;99.90;;;;;;4961361;28;20034;-72
2023/10/07 05:26:17;;;;;;;7.75;3.33;;;6.40;99.90;;;;;;4994269;28;20549;-72
2023/10/07 05:28:46;;;;;;;6.93;2.78;;;6.40;99.90;;;;;;4994465;28;20026;-72
2023/10/07 05:31:14;;;;;;;5.68;2.90;;;6.30;99.90;;;;;;4945690;28;20035;-72
2023/10/07 05:33:42;;;;;;;5.30;2.60;;;6.30;99.90;;;;;;4974881;28;20026;-72
2023/10/07 05:36:14;;;;;;;4.63;2.63;;;6.30;99.90;;;;;;4993987;28;20018;-72
2023/10/07 05:38:44;;;;;;;4.35;2.53;;;6.30;99.90;;;;;;4989389;28;20134;-72
2023/10/07 05:41:14;;;;;;;4.72;2.38;;;6.30;99.90;;;;;;4994027;28;20029;-72
2023/10/07 05:43:44;;;;;;;6.53;2.65;;;6.20;99.90;;;;;;4993553;28;20022;-72
2023/10/07 05:46:13;;;;;;;6.20;3.15;;;6.30;99.90;;;;;;4993640;28;20154;-72
2023/10/07 05:48:40;;;;;;;5.50;2.60;;;6.30;99.90;;;;;;4993464;28;20057;-73
2023/10/07 05:51:09;;;;;;;9.20;2.85;;;6.30;99.90;;;;;;4993737;28;20125;-72
2023/10/07 05:53:39;;;;;;;4.20;2.58;;;6.20;99.90;;;;;;4993333;28;20487;-72
2023/10/07 05:56:06;;;;;;;9.32;3.47;;;6.30;99.90;;;;;;4993592;28;20026;-73
2023/10/07 05:58:36;;;;;;;7.82;4.22;;;6.30;99.90;;;;;;4992624;28;20117;-72
2023/10/07 06:01:08;;;;;;;6.60;3.45;;;6.20;99.90;;;;;;4993928;28;20142;-73
2023/10/07 06:03:34;;;;;;;5.28;3.05;;;6.30;99.90;;;;;;4986802;28;20022;-73
2023/10/07 06:06:01;;;;;;;8.35;3.20;;;6.30;99.90;;;;;;4987325;28;20510;-72
2023/10/07 06:08:27;;;;;;;5.47;3.03;;;6.20;99.90;;;;;;4993775;28;20031;-73
2023/10/07 06:10:56;;;;;;;4.90;2.83;;;6.20;99.90;;;;;;4993805;28;20038;-72
2023/10/07 06:13:22;;;;;;;3.75;2.17;;;6.20;99.90;;;;;;4976645;28;20438;-72
2023/10/07 06:15:48;;;;;;;4.82;2.35;;;6.30;99.90;;;;;;4992670;28;20030;-72
2023/10/07 06:18:18;;;;;;;5.68;2.88;;;6.30;99.90;;;;;;4994086;28;20023;-72
2023/10/07 06:20:46;;;;;;;7.50;3.05;;;6.30;99.90;;;;;;4976763;28;20479;-73
2023/10/07 06:23:14;;;;;;;6.43;2.88;;;6.30;99.90;;;;;;4993697;28;20041;-72
2023/10/07 06:25:50;;;;;;;10.20;4.00;;;6.30;99.90;;;;;;4997064;28;20034;-72
2023/10/07 06:31:10;;;;;;;7.95;5.03;;;6.40;99.90;;;;;;4997640;28;20022;-72
2023/10/07 06:33:43;;;;;;;7.60;4.00;;;6.40;99.90;;;;;;4995710;28;20161;-73
2023/10/07 06:36:12;;;;;;;8.18;4.05;;;6.40;99.90;;;;;;4994602;28;20084;-73
2023/10/07 06:38:45;;;;;;;6.75;3.88;;;6.50;99.90;;;;;;4977409;28;20070;-73
2023/10/07 06:41:12;;;;;;;6.50;3.42;;;6.50;99.90;;;;;;4996434;28;20145;-73
2023/10/07 06:43:42;;;;;;;5.90;2.90;;;6.50;99.90;;;;;;4994828;28;20519;-73
2023/10/07 06:46:11;;;;;;;5.22;2.55;;;6.60;99.90;;;;;;4991223;28;20474;-73
2023/10/07 06:48:40;;;;;;;5.45;2.78;;;6.70;99.90;;;;;;4980209;28;20038;-73
2023/10/07 06:51:10;;;;;;;4.97;2.72;;;6.60;99.90;;;;;;4996202;28;20058;-73
2023/10/07 06:53:42;;;;;;;6.35;3.50;;;6.70;99.90;;;;;;4998429;28;20084;-73
2023/10/07 06:56:20;;;;;;;6.80;3.00;;;6.70;99.90;;;;;;4996622;28;20054;-73
2023/10/07 06:58:59;;;;;;;7.82;4.22;;;6.80;99.90;;;;;;4996212;28;20505;-74
2023/10/07 07:01:35;;;;;;;7.90;3.95;;;6.90;99.90;;;;;;4978849;28;20109;-73
2023/10/07 07:04:14;;;;;;;9.43;4.30;;;6.90;99.90;;;;;;4996354;28;20471;-74
2023/10/07 07:06:44;;;;;;;11.10;4.32;;;7.00;99.90;;;;;;4979708;28;20034;-73
2023/10/07 07:11:59;;;;;;;7.93;4.15;;;7.20;99.90;;;;;;4997510;28;20106;-73
2023/10/07 07:14:28;;;;;;;8.88;3.55;;;7.20;99.90;;;;;;4979411;28;20081;-73
2023/10/07 07:16:57;;;;;;;6.78;3.22;;;7.30;99.90;;;;;;4979531;28;20034;-73
2023/10/07 07:19:37;;;;;;;8.68;3.80;;;7.40;99.90;;;;;;4979484;28;20026;-73
2023/10/07 07:22:03;;;;;;;8.45;3.58;;;7.50;99.90;;;;;;4979470;28;20153;-73
2023/10/07 07:24:31;;;;;;;7.85;3.85;;;7.60;99.90;;;;;;4996893;28;20062;-73
2023/10/07 07:26:56;;;;;;;10.13;4.60;;;7.70;99.90;;;;;;4979783;28;20129;-74
2023/10/07 07:29:23;;;;;;;10.00;5.18;;;7.80;99.90;;;;;;4995431;28;20130;-74
2023/10/07 07:31:49;;;;;;;9.40;4.50;;;7.90;99.90;;;;;;4996564;28;20038;-73
2023/10/07 07:34:27;;;;;;;14.07;5.55;;;8.00;99.90;;;;;;4995556;28;20037;-73
2023/10/07 07:37:01;;;;;;;9.88;4.45;;;8.10;99.90;;;;;;4978726;28;20027;-73
2023/10/07 07:39:30;;;;;;;12.15;5.93;;;8.20;99.90;;;;;;4996618;28;20030;-74
2023/10/07 07:41:57;;;;;;;13.98;6.13;;;8.30;99.90;;;;;;4996587;28;20028;-73
2023/10/07 07:44:33;;;;;;;14.55;6.88;;;8.40;99.90;;;;;;4996717;28;20386;-73
2023/10/07 07:47:02;;;;;;;13.88;6.28;;;8.40;99.90;;;;;;4996762;28;20023;-73
2023/10/07 07:49:32;;;;;;;12.65;6.22;;;8.60;99.90;;;;;;4996545;28;20027;-73
2023/10/07 07:51:59;;;;;;;11.25;5.03;;;8.70;99.90;;;;;;4996340;28;20037;-73
2023/10/07 07:54:24;;;;;;;8.18;4.28;;;8.80;99.90;;;;;;4978652;28;20030;-73
2023/10/07 07:56:51;;;;;;;11.40;4.32;;;8.90;99.90;;;;;;4996793;28;20029;-73
2023/10/07 07:59:18;;;;;;;10.00;4.13;;;9.00;99.90;;;;;;4978703;28;20037;-74
2023/10/07 08:01:53;;;;;;;9.30;4.57;;;9.20;99.90;;;;;;4996460;28;20030;-73
2023/10/07 08:07:17;;;;;;;9.15;4.53;;;9.40;99.90;;;;;;4996174;28;20560;-73
2023/10/07 08:09:50;;;;;;;13.02;5.45;;;9.50;99.90;;;;;;4996376;28;20034;-73
2023/10/07 08:12:19;;;;;;;9.27;4.65;;;9.60;99.90;;;;;;4996402;28;20023;-73
2023/10/07 08:14:50;;;;;;;10.52;4.88;;;9.80;99.90;;;;;;4978390;28;20026;-73
2023/10/07 08:17:19;;;;;;;10.27;4.93;;;10.00;99.90;;;;;;4978460;28;20033;-73
2023/10/07 08:19:52;;;;;;;9.45;4.13;;;10.10;99.90;;;;;;4995870;28;20034;-73
2023/10/07 08:22:20;;;;;;;7.63;4.13;;;10.30;99.90;;;;;;4979066;28;20030;-73
2023/10/07 08:24:49;;;;;;;6.93;3.78;;;10.40;99.90;;;;;;4995491;28;20034;-74
2023/10/07 08:30:06;;;;;;;8.15;4.82;;;10.70;99.90;;;;;;4996271;28;20032;-74
2023/10/07 08:32:35;;;;;;;12.15;4.03;;;10.90;99.90;;;;;;4996058;28;20026;-73
2023/10/07 08:35:18;;;;;;;11.55;4.65;;;11.00;99.90;;;;;;4995506;28;20026;-73
2023/10/07 08:37:47;;;;;;;11.35;6.88;;;11.10;99.90;;;;;;4978492;28;20030;-73
2023/10/07 08:40:15;;;;;;;10.98;6.65;;;11.40;99.90;;;;;;4995751;28;20378;-73
2023/10/07 08:42:48;;;;;;;14.43;7.38;;;11.50;99.90;;;;;;4995539;28;20018;-73
2023/10/07 08:45:23;;;;;;;11.43;6.22;;;11.70;99.90;;;;;;4995376;28;20022;-73
2023/10/07 08:47:53;;;;;;;7.93;5.07;;;11.80;99.90;;;;;;4995504;28;20061;-73
2023/10/07 08:50:23;;;;;;;9.75;5.85;;;12.00;99.90;;;;;;4995328;28;20027;-74
2023/10/07 08:53:05;;;;;;;9.38;5.70;;;12.20;99.90;;;;;;4994396;28;20034;-73
2023/10/07 08:55:32;;;;;;;12.30;5.60;;;12.30;99.90;;;;;;4994411;28;20386;-73
2023/10/07 08:58:02;;;;;;;8.00;4.38;;;12.50;99.90;;;;;;4995376;28;20436;-73
2023/10/07 09:00:32;;;;;;;8.93;4.78;;;12.70;99.90;;;;;;4995318;28;20387;-74
2023/10/07 09:02:59;;;;;;;8.00;4.03;;;12.80;99.90;;;;;;4995378;28;20018;-73
2023/10/07 09:05:29;;;;;;;7.80;3.95;;;12.90;99.90;;;;;;4994891;28;20076;-73
2023/10/07 09:07:56;;;;;;;6.80;3.88;;;13.10;99.90;;;;;;4994848;28;20026;-74
2023/10/07 09:10:28;;;;;;;6.45;3.72;;;13.20;99.90;;;;;;4977437;28;20030;-73
2023/10/07 09:12:59;;;;;;;8.07;4.03;;;13.30;99.90;;;;;;4994782;28;20502;-74
2023/10/07 09:15:29;;;;;;;7.55;3.95;;;13.50;99.90;;;;;;4994864;28;20022;-74
2023/10/07 09:18:05;;;;;;;7.43;3.88;;;13.60;99.90;;;;;;4994474;28;20018;-73
2023/10/07 09:20:31;;;;;;;8.05;3.83;;;13.70;99.90;;;;;;4994283;28;20387;-73
2023/10/07 09:23:24;;;;;;;7.88;3.53;;;13.80;99.90;;;;;;4994356;28;20110;-73
2023/10/07 09:25:52;;;;;;;11.30;5.00;;;14.00;99.90;;;;;;4993881;28;20042;-73
2023/10/07 09:28:29;;;;;;;9.55;4.60;;;14.10;99.90;;;;;;4993495;28;20038;-73
2023/10/07 09:30:58;;;;;;;7.55;4.20;;;14.20;99.90;;;;;;4994895;28;20378;-73
2023/10/07 09:33:35;;;;;;;7.93;4.82;;;14.40;99.90;;;;;;4994651;28;20030;-73
2023/10/07 09:38:48;;;;;;;10.77;6.45;;;14.60;99.90;;;;;;4994757;28;20041;-73
2023/10/07 09:41:24;;;;;;;9.85;5.78;;;14.80;99.90;;;;;;4976908;28;20514;-73
2023/10/07 09:43:57;;;;;;;12.55;5.70;;;14.90;99.90;;;;;;4994387;28;20030;-73
2023/10/07 09:46:27;;;;;;;10.02;5.60;;;15.00;99.90;;;;;;4994569;28;20486;-73
2023/10/07 09:48:56;;;;;;;8.18;5.05;;;15.10;99.90;;;;;;4994569;28;20026;-73
2023/10/07 09:51:28;;;;;;;8.80;4.55;;;15.20;99.90;;;;;;4994533;28;20026;-73
2023/10/07 09:54:10;;;;;;;8.13;4.63;;;15.40;99.90;;;;;;4994382;28;20096;-73
2023/10/07 09:57:19;;;;;;;7.47;4.10;;;15.50;99.90;;;;;;4994141;28;20062;-73
2023/10/07 10:03:33;;;;;;;6.95;4.00;;;15.70;99.90;;;;;;4994078;28;20204;-73
2023/10/07 10:06:25;;;;;;;6.85;3.97;;;15.90;99.90;;;;;;4993924;28;20029;-73
2023/10/07 10:08:59;;;;;;;8.85;4.25;;;16.00;99.90;;;;;;4993944;28;20434;-73
2023/10/07 10:16:46;;;;;;;7.88;4.15;;;16.40;99.90;;;;;;4993956;28;20026;-75
2023/10/07 10:19:25;;;;;;;7.70;4.05;;;16.50;99.90;;;;;;4993978;28;20025;-75
2023/10/07 10:21:51;;;;;;;7.18;3.80;;;16.60;99.90;;;;;;4994222;28;20463;-75
2023/10/07 10:24:22;;;;;;;6.97;3.70;;;16.70;99.90;;;;;;4993835;28;20037;-75
2023/10/07 10:26:50;;;;;;;;;;;16.80;99.90;;;;;;4994151;28;20026;-75
2023/10/07 10:29:25;;;;;;;7.18;3.90;;;17.00;99.90;;;;;;4994200;28;19910;-75
2023/10/07 10:31:52;;;;;;;6.68;3.50;;;17.10;99.90;;;;;;4995123;28;20041;-75
2023/10/07 10:34:20;;;;;;;7.10;3.97;;;17.20;99.90;;;;;;4994599;28;20038;-75
2023/10/07 10:36:49;;;;;;;7.07;3.88;;;17.30;99.90;;;;;;4993728;28;20466;-75
2023/10/07 10:39:24;;;;;;;6.97;3.75;;;17.40;99.90;;;;;;4993887;28;20081;-75
2023/10/07 10:41:51;;;;;;;6.65;3.47;;;17.50;99.90;;;;;;4993847;28;20486;-75
2023/10/07 10:44:17;;;;;;;7.70;3.95;;;17.60;99.90;;;;;;4993691;28;20034;-75
2023/10/07 10:46:46;;;;;;;6.50;3.70;;;17.60;99.90;;;;;;4993642;28;20113;-75
2023/10/07 10:49:16;;;;;;;6.15;3.70;;;17.60;99.90;;;;;;4993624;28;20073;-75
2023/10/07 10:51:47;;;;;;;8.27;3.85;;;17.60;99.90;;;;;;4993660;28;20498;-75
2023/10/07 10:54:18;;;;;;;8.43;4.38;;;17.70;99.90;;;;;;4993561;28;20038;-75
2023/10/07 10:56:55;;;;;;;8.20;3.95;;;17.80;99.90;;;;;;4993565;28;20018;-75
2023/10/07 10:59:33;;;;;;;6.65;4.22;;;17.90;99.90;;;;;;4976129;28;20060;-72
2023/10/07 11:02:01;;;;;;;5.97;3.58;;;18.00;99.90;;;;;;4993622;28;20047;-72
2023/10/07 11:04:29;;;;;;;7.18;3.80;;;18.20;99.90;;;;;;4993541;28;20115;-73
2023/10/07 11:06:55;;;;;;;8.20;3.65;;;18.20;99.90;;;;;;4993523;28;20026;-72
2023/10/07 11:09:25;;;;;;;8.70;4.13;;;18.30;99.90;;;;;;4976088;28;20030;-73
2023/10/07 11:11:54;;;;;;;9.20;4.03;;;18.40;99.90;;;;;;4995515;28;20030;-72
2023/10/07 11:14:21;;;;;;;6.10;3.53;;;18.30;99.90;;;;;;4996966;28;20491;-72
2023/10/07 11:16:49;;;;;;;6.90;3.75;;;18.30;99.90;;;;;;4996909;28;20118;-74
2023/10/07 11:19:15;;;;;;;8.13;3.55;;;18.40;99.90;;;;;;4997257;28;20031;-74
2023/10/07 11:21:44;;;;;;;5.45;3.22;;;18.50;99.90;;;;;;4996902;28;20403;-74
2023/10/07 11:24:14;;;;;;;7.43;3.97;;;18.70;99.90;;;;;;4997184;28;20101;-74
2023/10/07 11:26:43;;;;;;;6.93;4.00;;;18.80;99.90;;;;;;4996661;28;20026;-74
2023/10/07 11:29:15;;;;;;;6.05;3.78;;;19.00;99.90;;;;;;4996781;28;20025;-74
2023/10/07 11:31:41;;;;;;;6.15;3.45;;;19.10;99.90;;;;;;4996780;28;20033;-74
2023/10/07 11:34:10;;;;;;;7.00;3.58;;;19.20;99.90;;;;;;4996905;28;20045;-74
2023/10/07 11:36:46;;;;;;;9.65;4.00;;;19.30;99.90;;;;;;4996619;28;20046;-74
2023/10/07 11:39:15;;;;;;;8.30;3.90;;;19.40;99.90;;;;;;4996613;28;20030;-74
2023/10/07 11:41:43;;;;;;;7.07;4.53;;;19.60;99.90;;;;;;4996547;28;20130;-74
2023/10/07 11:44:09;;;;;;;7.30;4.07;;;19.70;99.90;;;;;;4996539;28;20077;-74
2023/10/07 11:46:37;;;;;;;9.73;4.15;;;19.90;99.80;;;;;;4996424;28;20026;-74
2023/10/07 11:49:03;;;;;;;7.78;4.30;;;19.90;99.80;;;;;;4996584;28;20088;-74
2023/10/07 11:51:28;;;;;;;7.65;4.13;;;20.00;99.10;;;;;;4979345;28;20038;-74
2023/10/07 11:53:55;;;;;;;9.07;4.00;;;20.10;97.90;;;;;;4996811;28;20547;-74
2023/10/07 11:56:21;;;;;;;7.05;3.75;;;20.20;99.70;;;;;;4996518;28;20435;-74
2023/10/07 11:58:49;;;;;;;6.13;3.45;;;20.40;99.90;;;;;;4996375;28;20038;-73
2023/10/07 12:01:20;;;;;;;6.45;3.80;;;20.50;98.20;;;;;;4996319;28;20026;-72
2023/10/07 12:03:46;;;;;;;6.57;3.70;;;20.60;97.90;;;;;;4996340;28;20027;-71
2023/10/07 12:06:11;;;;;;;7.15;3.72;;;20.80;96.60;;;;;;4996102;28;20031;-73
2023/10/07 12:08:38;;;;;;;6.85;3.97;;;20.80;97.50;;;;;;4996290;28;20042;-74
2023/10/07 12:11:05;;;;;;;6.30;3.28;;;20.90;95.90;;;;;;4996478;28;20033;-74
2023/10/07 12:13:34;;;;;;;6.00;3.50;;;21.00;94.50;;;;;;4995918;28;20153;-74
2023/10/07 12:16:00;;;;;;;7.10;3.40;;;21.00;92.90;;;;;;4995911;28;20030;-73
2023/10/07 12:18:26;;;;;;;6.40;3.50;;;21.00;92.90;;;;;;4995997;28;20029;-71
2023/10/07 12:20:55;;;;;;;6.10;3.47;;;21.00;93.70;;;;;;4995836;28;20476;-72
2023/10/07 12:23:20;;;;;;;6.70;3.70;;;21.00;94.20;;;;;;4995359;28;20026;-71
2023/10/07 12:25:46;;;;;;;6.72;3.63;;;21.10;93.70;;;;;;4995717;28;20087;-72
2023/10/07 12:28:13;;;;;;;8.40;3.60;;;21.10;94.60;;;;;;4995825;28;20049;-72
2023/10/07 12:30:39;;;;;;;6.50;3.70;;;21.10;93.80;;;;;;4995652;28;20027;-71
2023/10/07 12:33:04;;;;;;;7.00;3.92;;;21.20;94.10;;;;;;4995577;28;20030;-72
2023/10/07 12:35:34;;;;;;;8.45;3.95;;;21.20;94.00;;;;;;4995833;28;20026;-71
2023/10/07 12:38:00;;;;;;;5.75;3.50;;;21.20;93.80;;;;;;4979247;28;20022;-71
2023/10/07 12:40:29;;;;;;;6.65;3.80;;;21.20;94.40;;;;;;4995532;28;20101;-71
2023/10/07 12:42:56;;;;;;;7.95;4.00;;;21.30;94.30;;;;;;4978031;28;20026;-72
2023/10/07 12:45:23;;;;;;;8.55;4.05;;;21.30;95.50;;;;;;4978362;28;20026;-72
2023/10/07 12:47:51;;;;;;;5.72;3.50;;;21.30;94.20;;;;;;4995352;28;20022;-72
2023/10/07 12:50:20;;;;;;;6.35;4.20;;;21.20;92.90;;;;;;4995378;28;20030;-72
2023/10/07 12:52:50;;;;;;;6.95;4.07;;;21.20;93.40;;;;;;4995209;28;20499;-72
2023/10/07 12:55:17;;;;;;;7.63;4.13;;;21.20;93.90;;;;;;4995160;28;20030;-72
2023/10/07 12:57:43;;;;;;;6.43;3.70;;;21.20;93.80;;;;;;4995116;28;20054;-72
2023/10/07 13:00:20;;;;;;;6.78;3.85;;;21.10;94.00;;;;;;4995049;28;20015;-72
2023/10/07 13:02:47;;;;;;;5.88;3.47;;;21.20;93.00;;;;;;4995086;28;20018;-72
2023/10/07 13:05:18;;;;;;;6.15;3.78;;;21.20;93.10;;;;;;4994957;28;20034;-71
2023/10/07 13:07:51;;;;;;;7.93;3.95;;;21.30;92.70;;;;;;4995477;28;20058;-71
2023/10/07 13:10:17;;;;;;;6.57;3.85;;;21.30;93.50;;;;;;4994958;28;20064;-72
2023/10/07 13:12:55;;;;;;;7.28;3.80;;;21.30;93.60;;;;;;4995583;28;20029;-71
2023/10/07 13:15:30;;;;;;;12.52;4.47;;;21.40;93.00;;;;;;4995186;28;20105;-72
2023/10/07 13:17:58;;;;;;;7.35;3.75;;;21.40;92.40;;;;;;4995142;28;20019;-72
2023/10/07 13:20:26;;;;;;;7.32;4.03;;;21.30;92.20;;;;;;4994999;28;20066;-72
2023/10/07 13:22:54;;;;;;;10.60;4.18;;;21.20;93.50;;;;;;4994762;28;20368;-72
2023/10/07 13:25:21;;;;;;;9.23;4.35;;;21.20;93.50;;;;;;4977243;28;20038;-72
2023/10/07 13:27:48;;;;;;;7.88;4.45;;;21.20;94.10;;;;;;4994721;28;20026;-72
2023/10/07 13:30:16;;;;;;;9.50;3.92;;;21.10;94.50;;;;;;4977178;28;20030;-71
2023/10/07 13:32:46;;;;;;;6.30;3.67;;;21.10;94.60;;;;;;4994806;28;20022;-71
2023/10/07 13:35:15;;;;;;;6.80;3.87;;;21.00;95.00;;;;;;4976717;28;20076;-72
2023/10/07 13:37:51;;;;;;;7.55;3.90;;;21.00;95.40;;;;;;4994834;28;20101;-72
2023/10/07 13:40:19;;;;;;;6.38;3.33;;;21.00;94.80;;;;;;4994721;28;20026;-71
2023/10/07 13:42:53;;;;;;;6.22;3.88;;;20.80;94.90;;;;;;4994373;28;20479;-72
2023/10/07 13:45:21;;;;;;;9.60;5.50;;;20.80;95.40;;;;;;4994494;28;20033;-72
2023/10/07 13:47:48;;;;;;;7.72;4.30;;;20.80;95.40;;;;;;4994270;28;20026;-72
2023/10/07 13:50:30;;;;;;;7.03;4.30;;;20.70;95.40;;;;;;4994309;28;20035;-72
2023/10/07 13:53:12;;;;;;;6.47;3.63;;;20.60;95.30;;;;;;4976730;28;20494;-72
2023/10/07 13:58:17;;;;;;;7.63;3.83;;;20.40;94.10;;;;;;4994520;28;20037;-72
2023/10/07 14:00:47;;;;;;;7.28;3.83;;;20.30;93.80;;;;;;4976737;28;20073;-72
2023/10/07 14:03:20;;;;;;;8.90;3.70;;;20.20;94.10;;;;;;4994156;28;20026;-72